バンクーバー の空港の天気 - METARとTAF

バンクーバー国際空港 ( CYVR / YVR ) - カナダ ブリティッシュコロンビア州バンクーバー
飛行場実況気象(Metar)
観測時間09/25 19:00 PDT (09/26 02:00 UTC)
風向・風速西北西 5m/s
視程10km以上
天気現象
少しの雲 雲底高度 6710m
全天の4割程度の雲 雲底高度 7620m
気温14℃
湿度88%
気圧1024hPa
METARCYVR 260200Z 30009KT 30SM FEW220 SCT250 14/12 A3024 RMK CC1CI3 SLP240
過去の天気等 Google飛行場航空写真 Wunderground天気予報

過去48時間のMETAR

飛行場予報(TAF)
発表時間: 9/25 19:38 PDT (9/26 02:38 UTC)
予報対象時間: 25日20時 PDT ~ 26日23時 PDT
風向・風速西北西 5m/s
視程10km以上
全天の4割程度の雲 雲底高度 7620m
26日2時 PDT ~ 26日4時 PDT に徐々に
風向・風速西北西 3m/s
26日4時 PDT から
風向・風速西北西 3m/s
視程10km以上
少しの雲 雲底高度 610m
26日4時 PDT から 確率 30% で
視程800m
天気現象
26日11時 PDT から
風向・風速西北西 5m/s
視程10km以上
少しの雲 雲底高度 6710m
TAF CYVR 260238Z 2603/2706 30010KT P6SM SCT250
BECMG 2609/2611 30005KT
FM261100 30005KT P6SM FEW020
PROB30 2611/2615 1/2SM FG
FM261800 30010KT P6SM FEW220 RMK NXT FCST BY 260600Z